Time;durP1;ratioP1;P1;durP2;ratioP2;P2;SDS_P1;SDS_P2;PMS_P1;PMS_P2;Temp;Humidity;BMP_temperature;BMP_pressure;BME280_temperature;BME280_humidity;BME280_pressure;Samples;Min_cycle;Max_cycle;Signal;HPM_P1;HPM_P2
2022/11/15 00:00:17;;;;;;;23.02;17.77;;;7.70;99.90;;;;;;5124365;27;20039;-73
2022/11/15 00:02:42;;;;;;;22.50;17.30;;;7.70;99.90;;;;;;5147587;27;20043;-73
2022/11/15 00:05:08;;;;;;;20.95;16.85;;;8.80;99.90;;;;;;5147642;27;20072;-75
2022/11/15 00:07:34;;;;;;;21.27;17.20;;;7.60;99.90;;;;;;5128078;27;20030;-73
2022/11/15 00:09:59;;;;;;;25.05;17.58;;;7.60;99.90;;;;;;5134942;27;20046;-73
2022/11/15 00:12:27;;;;;;;21.17;16.52;;;7.60;99.90;;;;;;5142433;27;20508;-74
2022/11/15 00:14:53;;;;;;;24.50;17.85;;;8.00;99.90;;;;;;5133538;27;20067;-74
2022/11/15 00:17:19;;;;;;;20.70;17.65;;;7.50;99.90;;;;;;5125797;27;20086;-73
2022/11/15 00:19:44;;;;;;;21.35;16.63;;;7.50;99.90;;;;;;5131780;27;20545;-73
2022/11/15 00:22:10;;;;;;;23.25;17.52;;;7.50;99.90;;;;;;5145343;27;20051;-71
2022/11/15 00:24:36;;;;;;;21.23;16.58;;;7.70;99.90;;;;;;5115187;27;20045;-71
2022/11/15 00:27:01;;;;;;;23.23;16.90;;;7.50;99.90;;;;;;5145201;27;20039;-71
2022/11/15 00:29:27;;;;;;;22.58;17.10;;;7.50;99.90;;;;;;5129015;27;20078;-71
2022/11/15 00:31:53;;;;;;;21.88;16.48;;;7.40;99.90;;;;;;5149359;27;20122;-71
2022/11/15 00:34:18;;;;;;;21.63;17.52;;;7.40;99.90;;;;;;5140823;27;20499;-71
2022/11/15 00:36:44;;;;;;;22.25;17.05;;;7.50;99.90;;;;;;5145668;27;20066;-71
2022/11/15 00:39:10;;;;;;;21.95;17.08;;;7.40;99.90;;;;;;5144547;27;20115;-71
2022/11/15 00:41:35;;;;;;;23.20;16.20;;;7.40;99.90;;;;;;5145928;27;20034;-71
2022/11/15 00:44:01;;;;;;;24.10;17.58;;;7.50;99.90;;;;;;5089796;27;20054;-71
2022/11/15 00:46:27;;;;;;;22.48;17.38;;;7.50;99.90;;;;;;5127045;27;20092;-71
2022/11/15 00:48:52;;;;;;;24.05;17.13;;;7.40;99.90;;;;;;5129371;27;20069;-71
2022/11/15 00:51:18;;;;;;;23.70;18.50;;;7.50;99.90;;;;;;5134008;27;20038;-71
2022/11/15 00:53:44;;;;;;;24.40;17.17;;;7.50;99.90;;;;;;5117853;27;20040;-71
2022/11/15 00:56:10;;;;;;;20.63;16.52;;;7.50;99.90;;;;;;5114449;27;20490;-73
2022/11/15 00:58:35;;;;;;;22.65;17.08;;;8.70;99.90;;;;;;5131594;27;20099;-74
2022/11/15 01:01:06;;;;;;;21.55;17.33;;;7.50;99.90;;;;;;5125732;27;20527;-73
2022/11/15 01:03:33;;;;;;;20.85;16.00;;;7.50;99.90;;;;;;5144006;27;20074;-74
2022/11/15 01:06:00;;;;;;;25.38;17.85;;;7.50;99.90;;;;;;5127885;27;20043;-74
2022/11/15 01:08:26;;;;;;;19.58;15.45;;;7.50;99.90;;;;;;5107637;27;20042;-73
2022/11/15 01:10:51;;;;;;;20.80;16.80;;;7.50;99.90;;;;;;5108476;27;20049;-75
2022/11/15 01:13:17;;;;;;;23.67;18.02;;;7.50;99.90;;;;;;5127441;27;20489;-73
2022/11/15 01:15:43;;;;;;;21.98;17.85;;;7.50;99.90;;;;;;5129651;27;20039;-73
2022/11/15 01:18:09;;;;;;;23.50;18.58;;;7.50;99.90;;;;;;5132460;27;20050;-73
2022/11/15 01:20:42;;;;;;;25.23;20.25;;;7.60;99.90;;;;;;5111263;27;20058;-73
2022/11/15 01:23:08;;;;;;;23.60;19.92;;;7.60;99.90;;;;;;5127477;27;20043;-73
2022/11/15 01:25:33;;;;;;;24.65;20.17;;;7.50;99.90;;;;;;5132271;27;20043;-73
2022/11/15 01:27:59;;;;;;;23.42;19.10;;;8.50;99.90;;;;;;5133489;27;20460;-73
2022/11/15 01:30:25;;;;;;;22.35;18.08;;;8.10;99.90;;;;;;5129864;27;20031;-75
2022/11/15 01:32:50;;;;;;;24.58;18.92;;;7.40;99.90;;;;;;5132021;27;20624;-73
2022/11/15 01:35:16;;;;;;;24.38;19.38;;;7.40;99.90;;;;;;5145699;27;20042;-73
2022/11/15 01:37:42;;;;;;;25.13;19.65;;;8.50;99.90;;;;;;5145585;27;20097;-73
2022/11/15 01:40:08;;;;;;;22.92;19.73;;;7.40;99.90;;;;;;5134868;27;20406;-72
2022/11/15 01:42:34;;;;;;;27.73;20.38;;;7.40;99.90;;;;;;5140922;27;20042;-73
2022/11/15 01:44:59;;;;;;;25.40;19.95;;;7.40;99.90;;;;;;5126598;27;20043;-72
2022/11/15 01:47:37;;;;;;;24.63;20.23;;;8.30;99.90;;;;;;5128349;27;20051;-71
2022/11/15 01:50:07;;;;;;;25.80;20.52;;;7.40;99.90;;;;;;5128004;27;20078;-72
2022/11/15 01:52:35;;;;;;;25.25;18.80;;;7.40;99.90;;;;;;5145495;27;20042;-73
2022/11/15 01:55:19;;;;;;;30.38;20.15;;;7.40;99.90;;;;;;5143688;27;20080;-73
2022/11/15 01:57:47;;;;;;;26.90;20.15;;;7.30;99.90;;;;;;5124487;27;20584;-73
2022/11/15 02:00:13;;;;;;;26.23;19.83;;;7.40;99.90;;;;;;5129103;27;21920;-73
2022/11/15 02:02:39;;;;;;;25.23;20.00;;;7.30;99.90;;;;;;5148635;27;20070;-73
2022/11/15 02:05:06;;;;;;;24.60;18.83;;;7.70;99.90;;;;;;5125281;27;20039;-72
2022/11/15 02:07:34;;;;;;;23.42;18.55;;;7.30;99.90;;;;;;5108057;27;20042;-73
2022/11/15 02:10:06;;;;;;;26.80;18.27;;;7.70;99.90;;;;;;5131029;27;20130;-73
2022/11/15 02:12:32;;;;;;;26.95;18.75;;;7.30;99.90;;;;;;5123066;27;20382;-74
2022/11/15 02:14:58;;;;;;;21.50;17.67;;;7.20;99.90;;;;;;5115576;27;20039;-73
2022/11/15 02:17:58;;;;;;;26.90;19.10;;;7.10;99.90;;;;;;5126551;27;20117;-72
2022/11/15 02:20:41;;;;;;;23.73;18.48;;;7.20;99.90;;;;;;5129029;27;20111;-72
2022/11/15 02:23:43;;;;;;;22.77;18.33;;;7.30;99.90;;;;;;5131783;27;20103;-73
2022/11/15 02:26:47;;;;;;;25.80;18.27;;;7.30;99.90;;;;;;5127525;27;20026;-74
2022/11/15 02:29:39;;;;;;;24.38;17.83;;;7.20;99.90;;;;;;5121844;27;20482;-73
2022/11/15 02:32:05;;;;;;;25.00;18.40;;;7.20;99.90;;;;;;5069543;27;20050;-73
2022/11/15 02:34:52;;;;;;;26.73;19.02;;;7.20;99.90;;;;;;5140688;27;20038;-74
2022/11/15 02:37:35;;;;;;;29.92;18.92;;;7.20;99.90;;;;;;5125462;27;20066;-74
2022/11/15 02:40:22;;;;;;;26.23;18.40;;;7.20;99.90;;;;;;5110240;27;21379;-74
2022/11/15 02:45:54;;;;;;;26.45;17.80;;;7.20;99.90;;;;;;5130305;27;20126;-73
2022/11/15 02:48:22;;;;;;;27.90;18.20;;;7.20;99.90;;;;;;5127943;27;20038;-73
2022/11/15 02:50:48;;;;;;;31.30;18.98;;;7.20;99.90;;;;;;5110567;27;20046;-73
2022/11/15 02:53:14;;;;;;;26.55;18.65;;;7.20;99.90;;;;;;5125356;27;20041;-73
2022/11/15 02:55:46;;;;;;;27.45;19.13;;;8.50;99.90;;;;;;5107657;27;20281;-73
2022/11/15 02:59:12;;;;;;;32.58;20.23;;;7.20;99.90;;;;;;5136899;27;20050;-72
2022/11/15 03:01:50;;;;;;;31.13;20.92;;;7.20;99.90;;;;;;5063075;28;21896;-73
2022/11/15 03:04:30;;;;;;;29.83;19.95;;;7.20;99.90;;;;;;5134851;27;20501;-73
2022/11/15 03:07:04;;;;;;;27.42;20.40;;;7.20;99.90;;;;;;5106035;27;20057;-73
2022/11/15 03:09:48;;;;;;;32.05;20.88;;;7.20;99.90;;;;;;5131142;27;20043;-73
2022/11/15 03:12:36;;;;;;;29.63;19.65;;;7.60;99.90;;;;;;5130074;27;20043;-73
2022/11/15 03:15:11;;;;;;;37.30;22.13;;;8.30;99.90;;;;;;5146044;27;20046;-73
2022/11/15 03:17:42;;;;;;;31.45;19.42;;;7.30;99.90;;;;;;5143728;27;20046;-73
2022/11/15 03:20:11;;;;;;;31.38;19.48;;;8.30;99.90;;;;;;5145166;27;20060;-74
2022/11/15 03:22:42;;;;;;;30.55;19.45;;;8.70;99.90;;;;;;5132181;27;20043;-73
2022/11/15 03:25:11;;;;;;;33.55;20.98;;;7.20;99.90;;;;;;5126195;27;20497;-70
2022/11/15 03:27:42;;;;;;;30.08;20.48;;;8.20;99.90;;;;;;5143921;27;20721;-73
2022/11/15 03:30:09;;;;;;;32.88;21.00;;;7.30;99.90;;;;;;5146684;27;20042;-73
2022/11/15 03:32:39;;;;;;;30.48;20.92;;;7.30;99.90;;;;;;5131603;27;20061;-71
2022/11/15 03:35:27;;;;;;;33.50;21.40;;;7.30;99.90;;;;;;5113686;27;20053;-70
2022/11/15 03:38:05;;;;;;;30.48;20.10;;;7.30;99.90;;;;;;5129535;27;20405;-71
2022/11/15 03:40:39;;;;;;;32.28;19.27;;;7.30;99.90;;;;;;5111854;27;20051;-71
2022/11/15 03:43:14;;;;;;;;;;;7.30;99.90;;;;;;5131797;27;20041;-70
2022/11/15 03:45:46;;;;;;;;;;;7.30;99.90;;;;;;5117486;27;20617;-71
2022/11/15 03:48:18;;;;;;;31.73;19.77;;;7.40;99.90;;;;;;5148634;27;19919;-71
2022/11/15 03:50:45;;;;;;;35.28;20.45;;;7.30;99.90;;;;;;5132032;27;20039;-70
2022/11/15 03:53:13;;;;;;;38.65;20.80;;;7.40;99.90;;;;;;5126034;27;20031;-71
2022/11/15 03:55:38;;;;;;;35.40;21.17;;;7.40;99.90;;;;;;5148366;27;20493;-71
2022/11/15 03:58:04;;;;;;;35.88;21.85;;;7.30;99.90;;;;;;5114732;27;20537;-71
2022/11/15 04:00:30;;;;;;;36.75;21.45;;;7.40;99.90;;;;;;5141707;27;20034;-70
2022/11/15 04:02:56;;;;;;;41.97;23.48;;;7.40;99.90;;;;;;5150005;27;20038;-71
2022/11/15 04:05:22;;;;;;;36.65;20.88;;;7.40;99.90;;;;;;5129249;27;20156;-74
2022/11/15 04:07:47;;;;;;;34.78;21.02;;;7.40;99.90;;;;;;5112650;27;20127;-71
2022/11/15 04:10:14;;;;;;;35.72;21.30;;;7.50;99.90;;;;;;5131536;27;20084;-72
2022/11/15 04:12:43;;;;;;;40.53;22.27;;;7.40;99.90;;;;;;5142122;27;20076;-71
2022/11/15 04:15:17;;;;;;;34.97;20.77;;;7.50;99.90;;;;;;5130491;27;20046;-72
2022/11/15 04:17:51;;;;;;;38.53;22.77;;;7.50;99.90;;;;;;5128087;27;20088;-71
2022/11/15 04:25:57;;;;;;;38.75;21.67;;;7.50;99.90;;;;;;5145636;27;20043;-72
2022/11/15 04:28:23;;;;;;;37.75;21.63;;;8.30;99.90;;;;;;5147395;27;20043;-74
2022/11/15 04:30:49;;;;;;;40.35;22.52;;;7.60;99.90;;;;;;5112553;27;20053;-73
2022/11/15 04:33:15;;;;;;;36.47;22.00;;;8.50;99.90;;;;;;5110289;27;20498;-72
2022/11/15 04:35:42;;;;;;;37.42;22.02;;;7.60;99.90;;;;;;5142535;27;20065;-71
2022/11/15 04:38:09;;;;;;;41.60;21.15;;;7.60;99.90;;;;;;5132057;27;20106;-72
2022/11/15 04:40:36;;;;;;;38.00;21.15;;;7.80;99.90;;;;;;5147904;27;20092;-74
2022/11/15 04:43:02;;;;;;;40.42;22.38;;;7.70;99.90;;;;;;5144978;27;20519;-73
2022/11/15 04:45:27;;;;;;;39.78;22.40;;;7.70;99.90;;;;;;5132638;27;20041;-72
2022/11/15 04:47:53;;;;;;;40.33;22.30;;;7.70;99.90;;;;;;5129227;27;20042;-72
2022/11/15 04:50:22;;;;;;;40.88;22.05;;;8.80;99.90;;;;;;5131777;27;20042;-71
2022/11/15 04:52:52;;;;;;;43.35;22.42;;;7.70;99.90;;;;;;5133832;27;20167;-72
2022/11/15 04:55:18;;;;;;;40.55;21.65;;;8.60;99.90;;;;;;5144776;27;20483;-72
2022/11/15 04:57:44;;;;;;;40.08;23.20;;;7.70;99.90;;;;;;5110100;27;20053;-72
2022/11/15 05:00:13;;;;;;;37.58;22.25;;;7.70;99.90;;;;;;5133783;27;20026;-72
2022/11/15 05:05:24;;;;;;;43.13;21.88;;;7.80;99.90;;;;;;5140553;27;20463;-71
2022/11/15 05:07:49;;;;;;;40.85;22.67;;;7.80;99.90;;;;;;5149634;27;20042;-71
2022/11/15 05:10:15;;;;;;;45.90;24.58;;;7.90;99.90;;;;;;5131610;27;20542;-71
2022/11/15 05:12:41;;;;;;;48.63;25.60;;;7.80;99.90;;;;;;5135657;27;20042;-71
2022/11/15 05:15:07;;;;;;;45.33;24.50;;;9.00;99.90;;;;;;5131337;27;20497;-71
2022/11/15 05:17:32;;;;;;;50.13;25.10;;;7.90;99.90;;;;;;5134051;27;20038;-72
2022/11/15 05:19:58;;;;;;;54.78;25.23;;;8.30;99.90;;;;;;5132066;27;20127;-72
2022/11/15 05:22:24;;;;;;;43.80;23.52;;;8.00;99.90;;;;;;5141251;27;20039;-71
2022/11/15 05:24:49;;;;;;;51.67;27.65;;;8.00;99.90;;;;;;5128636;27;20379;-72
2022/11/15 05:27:15;;;;;;;55.97;28.17;;;8.00;99.90;;;;;;5132126;27;20034;-71
2022/11/15 05:29:41;;;;;;;55.65;27.50;;;8.00;99.90;;;;;;5146499;27;20131;-71
2022/11/15 05:32:10;;;;;;;57.65;27.95;;;8.00;99.90;;;;;;5132197;27;20645;-71
2022/11/15 05:34:35;;;;;;;59.28;28.00;;;8.10;99.90;;;;;;5123193;27;20047;-72
2022/11/15 05:37:01;;;;;;;61.47;30.58;;;9.30;99.90;;;;;;5130461;27;20619;-71
2022/11/15 05:39:27;;;;;;;57.92;28.85;;;9.50;99.90;;;;;;5150000;27;20466;-71
2022/11/15 05:42:14;;;;;;;55.63;27.38;;;8.10;99.90;;;;;;5132794;27;20768;-72
2022/11/15 05:44:44;;;;;;;57.33;28.88;;;8.20;99.90;;;;;;5125863;27;20130;-72
2022/11/15 05:47:15;;;;;;;58.25;29.38;;;8.40;99.90;;;;;;5146207;27;20109;-71
2022/11/15 05:49:42;;;;;;;57.47;29.27;;;8.30;99.90;;;;;;5113837;27;20890;-72
2022/11/15 05:52:11;;;;;;;56.83;29.65;;;8.30;99.90;;;;;;5147062;27;20086;-72
2022/11/15 05:54:37;;;;;;;59.20;29.60;;;8.90;99.90;;;;;;5131253;27;20552;-71
2022/11/15 05:57:04;;;;;;;59.42;29.98;;;8.20;99.90;;;;;;5125391;27;20062;-71
2022/11/15 05:59:31;;;;;;;56.70;30.10;;;8.30;99.90;;;;;;5133490;27;20045;-71
2022/11/15 06:01:57;;;;;;;71.07;34.28;;;9.80;99.90;;;;;;5127788;27;20043;-71
2022/11/15 06:04:23;;;;;;;67.07;31.65;;;8.40;99.90;;;;;;5110700;27;20053;-71
2022/11/15 06:06:49;;;;;;;67.28;33.92;;;9.30;99.90;;;;;;5123297;27;20125;-71
2022/11/15 06:09:14;;;;;;;65.88;33.20;;;9.00;99.90;;;;;;5131402;27;20039;-71
2022/11/15 06:11:40;;;;;;;61.45;30.85;;;8.50;99.90;;;;;;4428110;27;10000723;-72
2022/11/15 06:14:06;;;;;;;62.35;32.58;;;8.60;99.90;;;;;;5107767;27;20755;-71
2022/11/15 06:16:32;;;;;;;64.25;32.67;;;8.60;99.90;;;;;;5142543;27;20042;-71
2022/11/15 06:18:57;;;;;;;66.35;33.13;;;8.60;99.90;;;;;;5123813;27;20051;-73
2022/11/15 06:21:23;;;;;;;61.85;31.15;;;8.60;99.90;;;;;;5123700;27;20027;-71
2022/11/15 06:23:49;;;;;;;71.20;34.97;;;8.70;99.90;;;;;;5100082;27;20154;-72
2022/11/15 06:26:15;;;;;;;58.10;31.38;;;8.60;99.90;;;;;;5120481;27;20460;-73
2022/11/15 06:28:40;;;;;;;57.95;31.63;;;8.70;99.90;;;;;;5115319;27;20046;-72
2022/11/15 06:31:09;;;;;;;59.22;30.88;;;8.70;99.90;;;;;;5128363;27;20858;-73
2022/11/15 06:33:34;;;;;;;67.97;33.45;;;8.70;99.90;;;;;;5125525;27;20035;-72
2022/11/15 06:36:05;;;;;;;64.13;33.25;;;8.80;99.90;;;;;;5127780;27;20087;-73
2022/11/15 06:38:31;;;;;;;63.45;33.17;;;8.80;99.90;;;;;;5109811;27;20541;-72
2022/11/15 06:41:08;;;;;;;61.15;30.83;;;8.80;99.90;;;;;;5121460;27;20470;-74
2022/11/15 06:43:34;;;;;;;58.83;30.80;;;8.80;99.90;;;;;;5128814;27;20517;-73
2022/11/15 06:46:02;;;;;;;63.25;32.00;;;8.90;99.90;;;;;;5131652;27;20501;-73
2022/11/15 06:48:28;;;;;;;58.25;32.75;;;8.90;99.90;;;;;;5113700;27;20090;-74
2022/11/15 06:50:56;;;;;;;77.10;44.63;;;8.90;99.90;;;;;;5131437;27;20269;-74
2022/11/15 06:53:22;;;;;;;73.32;39.38;;;9.00;99.90;;;;;;5131166;27;20043;-73
2022/11/15 06:55:48;;;;;;;62.28;32.63;;;9.00;99.90;;;;;;5114377;27;20387;-74
2022/11/15 06:58:14;;;;;;;60.22;32.42;;;9.00;99.90;;;;;;5113520;27;20049;-74
2022/11/15 07:00:40;;;;;;;53.30;31.92;;;9.70;99.90;;;;;;5132662;27;20031;-73
2022/11/15 07:03:05;;;;;;;57.03;30.92;;;9.10;99.90;;;;;;5114880;27;20038;-73
2022/11/15 07:05:31;;;;;;;57.63;32.08;;;9.20;99.90;;;;;;5115380;27;20184;-75
2022/11/15 07:07:58;;;;;;;65.90;32.63;;;9.60;99.90;;;;;;5115266;27;20038;-73
2022/11/15 07:10:25;;;;;;;59.65;33.28;;;9.10;99.90;;;;;;5129809;27;20055;-74
2022/11/15 07:12:51;;;;;;;58.22;31.20;;;9.20;99.90;;;;;;5135912;27;20536;-74
2022/11/15 07:15:22;;;;;;;57.10;31.45;;;9.20;99.90;;;;;;5117243;27;20485;-74
2022/11/15 07:17:48;;;;;;;63.53;33.35;;;9.20;99.90;;;;;;5119948;27;20038;-74
2022/11/15 07:20:14;;;;;;;63.13;32.88;;;9.20;99.90;;;;;;5129964;27;20039;-73
2022/11/15 07:22:40;;;;;;;63.22;32.10;;;9.30;99.90;;;;;;5124974;27;20505;-74
2022/11/15 07:25:06;;;;;;;59.35;33.13;;;9.30;99.90;;;;;;5147356;27;20038;-73
2022/11/15 07:27:32;;;;;;;72.28;33.03;;;9.30;99.90;;;;;;5114414;27;20486;-72
2022/11/15 07:29:58;;;;;;;67.30;32.97;;;9.40;99.90;;;;;;5115198;27;20636;-73
2022/11/15 07:32:24;;;;;;;61.15;32.08;;;9.40;99.90;;;;;;5135404;27;20522;-73
2022/11/15 07:34:49;;;;;;;57.10;31.27;;;9.70;99.90;;;;;;5134260;27;20409;-74
2022/11/15 07:37:16;;;;;;;55.90;30.55;;;9.30;99.90;;;;;;5134740;27;20065;-73
2022/11/15 07:39:42;;;;;;;57.30;32.33;;;9.40;99.90;;;;;;5118237;27;20039;-73
2022/11/15 07:44:52;;;;;;;58.65;31.75;;;9.40;99.90;;;;;;5131775;27;20042;-73
2022/11/15 07:47:20;;;;;;;59.45;31.52;;;9.40;99.90;;;;;;5153118;27;20137;-73
2022/11/15 07:49:45;;;;;;;59.90;32.05;;;10.40;99.90;;;;;;5153114;27;20098;-73
2022/11/15 07:52:12;;;;;;;50.80;30.60;;;9.50;99.90;;;;;;5134929;27;20039;-74
2022/11/15 07:54:38;;;;;;;53.42;29.58;;;9.50;99.90;;;;;;5153773;27;20047;-73
2022/11/15 07:57:04;;;;;;;52.90;30.20;;;9.60;99.90;;;;;;5130710;27;20035;-74
2022/11/15 07:59:30;;;;;;;50.88;28.88;;;9.60;99.90;;;;;;5145327;27;20074;-73
2022/11/15 08:01:56;;;;;;;53.05;29.23;;;10.20;99.90;;;;;;5122686;27;20086;-72
2022/11/15 08:04:21;;;;;;;48.08;28.25;;;9.60;99.90;;;;;;5110789;27;20035;-73
2022/11/15 08:06:47;;;;;;;52.75;29.08;;;10.60;99.90;;;;;;5126202;27;20034;-73
2022/11/15 08:09:13;;;;;;;48.75;28.90;;;9.70;99.90;;;;;;5147582;27;20133;-73
2022/11/15 08:11:38;;;;;;;50.13;28.98;;;9.70;99.90;;;;;;5109209;27;20074;-73
2022/11/15 08:14:04;;;;;;;46.47;28.00;;;9.80;99.90;;;;;;5143773;27;20051;-73
2022/11/15 08:16:30;;;;;;;52.53;28.88;;;9.80;99.90;;;;;;5146248;27;20041;-73
2022/11/15 08:18:56;;;;;;;46.85;29.42;;;9.80;99.90;;;;;;5111716;27;20031;-73
2022/11/15 08:21:22;;;;;;;45.63;28.17;;;9.90;99.90;;;;;;5129613;27;20113;-73
2022/11/15 08:23:48;;;;;;;42.58;27.55;;;9.90;99.90;;;;;;5142057;27;20119;-74
2022/11/15 08:26:14;;;;;;;46.35;27.25;;;9.90;99.90;;;;;;5139953;27;20117;-73
2022/11/15 08:28:40;;;;;;;50.13;29.20;;;9.90;99.90;;;;;;5143014;27;20043;-74
2022/11/15 08:31:06;;;;;;;41.53;27.17;;;10.00;99.90;;;;;;5126724;27;20107;-73
2022/11/15 08:33:32;;;;;;;42.00;27.02;;;10.00;99.90;;;;;;5128697;27;20050;-73
2022/11/15 08:35:59;;;;;;;45.20;26.55;;;10.00;99.90;;;;;;5119014;27;20051;-73
2022/11/15 08:38:28;;;;;;;46.10;27.30;;;10.00;99.90;;;;;;5121824;27;20498;-73
2022/11/15 08:41:00;;;;;;;39.17;24.98;;;10.80;99.90;;;;;;5121929;27;20047;-73
2022/11/15 08:43:26;;;;;;;38.28;25.98;;;10.10;99.90;;;;;;5126739;27;20081;-74
2022/11/15 08:45:55;;;;;;;40.13;26.30;;;10.10;99.90;;;;;;5123904;27;20066;-73
2022/11/15 08:48:20;;;;;;;38.70;26.52;;;10.80;99.90;;;;;;5119779;27;20045;-74
2022/11/15 08:50:46;;;;;;;38.70;26.15;;;10.20;99.90;;;;;;5122681;27;20126;-74
2022/11/15 08:53:13;;;;;;;44.50;25.33;;;10.70;99.90;;;;;;5121807;27;20100;-74
2022/11/15 08:55:39;;;;;;;39.05;24.67;;;10.20;99.90;;;;;;5107681;27;20103;-73
2022/11/15 08:58:05;;;;;;;35.45;23.92;;;10.20;99.90;;;;;;5103863;27;20043;-74
2022/11/15 09:00:31;;;;;;;30.92;23.48;;;11.30;99.90;;;;;;5106147;27;20425;-76
2022/11/15 09:02:56;;;;;;;32.53;23.45;;;10.20;99.90;;;;;;5105039;27;20084;-74
2022/11/15 09:05:22;;;;;;;30.55;23.08;;;11.00;99.90;;;;;;5126186;27;20039;-74
2022/11/15 09:07:52;;;;;;;36.63;23.88;;;10.30;99.90;;;;;;5123565;27;20040;-74
2022/11/15 09:10:17;;;;;;;32.03;22.63;;;10.30;99.90;;;;;;5101417;28;20040;-74
2022/11/15 09:12:43;;;;;;;35.47;22.80;;;10.40;99.90;;;;;;5107293;27;20043;-74
2022/11/15 09:15:09;;;;;;;30.33;22.73;;;10.40;99.90;;;;;;5122821;27;20398;-74
2022/11/15 09:17:35;;;;;;;35.03;22.65;;;10.40;99.90;;;;;;5124255;27;20039;-73
2022/11/15 09:20:01;;;;;;;33.58;23.20;;;10.50;99.90;;;;;;5103816;27;20051;-74
2022/11/15 09:22:28;;;;;;;32.67;21.98;;;11.10;99.90;;;;;;5120085;27;20043;-74
2022/11/15 09:24:54;;;;;;;32.47;21.58;;;10.50;99.90;;;;;;5111120;27;20158;-74
2022/11/15 09:27:20;;;;;;;33.47;20.95;;;10.60;99.90;;;;;;5116732;27;20432;-74
2022/11/15 09:29:45;;;;;;;28.25;20.88;;;10.60;99.90;;;;;;5123938;27;20051;-74
2022/11/15 09:32:11;;;;;;;34.33;21.20;;;10.60;99.90;;;;;;5118536;27;20054;-73
2022/11/15 09:34:37;;;;;;;29.23;21.65;;;10.60;99.90;;;;;;5109821;27;20078;-74
2022/11/15 09:37:02;;;;;;;28.55;19.33;;;11.40;99.90;;;;;;5145009;27;20054;-73
2022/11/15 09:39:28;;;;;;;28.25;20.35;;;11.90;99.90;;;;;;5140100;27;20537;-74
2022/11/15 09:42:08;;;;;;;27.25;19.73;;;10.60;99.90;;;;;;5127268;27;20039;-74
2022/11/15 09:44:48;;;;;;;29.23;19.10;;;10.70;99.90;;;;;;5123099;27;20128;-74
2022/11/15 09:47:38;;;;;;;30.90;21.23;;;9.90;99.90;;;;;;5147014;27;20088;-74
2022/11/15 09:50:10;;;;;;;26.60;19.90;;;10.70;99.90;;;;;;5140604;27;20066;-74
2022/11/15 09:52:38;;;;;;;30.23;18.58;;;10.80;99.90;;;;;;5148282;27;20039;-74
2022/11/15 09:55:07;;;;;;;26.95;18.48;;;10.80;99.90;;;;;;5122128;27;20050;-74
2022/11/15 09:57:49;;;;;;;28.70;19.40;;;10.80;99.90;;;;;;5123900;27;20080;-74
2022/11/15 10:00:24;;;;;;;26.40;20.08;;;10.80;99.90;;;;;;5143021;27;20038;-74
2022/11/15 10:03:22;;;;;;;30.17;19.02;;;10.80;99.90;;;;;;5122666;27;20062;-74
2022/11/15 10:05:51;;;;;;;28.48;20.17;;;10.80;99.90;;;;;;5117516;27;20050;-74
2022/11/15 10:08:35;;;;;;;25.92;18.63;;;10.90;99.90;;;;;;5145811;27;20043;-74
2022/11/15 10:11:10;;;;;;;29.75;20.05;;;10.90;99.90;;;;;;5121138;27;20054;-75
2022/11/15 10:13:41;;;;;;;28.08;18.48;;;10.80;99.90;;;;;;5113180;27;20050;-73
2022/11/15 10:16:24;;;;;;;32.20;18.75;;;10.90;99.90;;;;;;5141066;27;20043;-74
2022/11/15 10:19:12;;;;;;;32.35;20.08;;;10.90;99.90;;;;;;5118872;27;20122;-74
2022/11/15 10:22:04;;;;;;;31.95;19.15;;;11.00;99.90;;;;;;5107713;27;20098;-74
2022/11/15 10:24:36;;;;;;;25.13;18.00;;;10.90;99.90;;;;;;5140964;27;20431;-74
2022/11/15 10:27:12;;;;;;;23.80;17.65;;;11.00;99.90;;;;;;5122420;27;20486;-74
2022/11/15 10:29:47;;;;;;;22.55;17.52;;;11.00;99.90;;;;;;5120577;27;20530;-74
2022/11/15 10:32:14;;;;;;;23.45;18.42;;;11.10;99.90;;;;;;5146692;27;20043;-74
2022/11/15 10:34:40;;;;;;;23.45;16.55;;;11.10;99.90;;;;;;5142567;27;20099;-74
2022/11/15 10:37:06;;;;;;;21.13;16.83;;;11.10;99.90;;;;;;5136463;27;20044;-74
2022/11/15 10:39:33;;;;;;;25.98;17.88;;;11.20;99.90;;;;;;5125570;27;20474;-74
2022/11/15 10:42:28;;;;;;;25.45;17.00;;;11.30;99.90;;;;;;5139016;27;20047;-74
2022/11/15 10:44:54;;;;;;;21.73;16.50;;;11.20;99.90;;;;;;5109947;27;20505;-73
2022/11/15 10:47:31;;;;;;;21.45;16.33;;;11.30;99.90;;;;;;5101741;27;20039;-74
2022/11/15 10:50:19;;;;;;;21.00;15.98;;;11.60;99.90;;;;;;5107015;27;20138;-74
2022/11/15 10:52:48;;;;;;;24.33;16.30;;;11.30;99.90;;;;;;5095433;28;20051;-74
2022/11/15 10:55:17;;;;;;;20.88;15.57;;;11.30;99.90;;;;;;5122170;27;20047;-75
2022/11/15 10:57:51;;;;;;;23.98;14.63;;;11.40;99.90;;;;;;5122890;27;20039;-74
2022/11/15 11:00:20;;;;;;;22.98;15.13;;;11.40;99.90;;;;;;5123356;27;20107;-75
2022/11/15 11:02:55;;;;;;;20.45;14.23;;;11.40;99.90;;;;;;5123624;27;20573;-75
2022/11/15 11:05:33;;;;;;;18.88;13.90;;;11.50;99.90;;;;;;5121724;27;20058;-74
2022/11/15 11:08:05;;;;;;;18.17;13.23;;;12.30;99.90;;;;;;5147671;27;20053;-74
2022/11/15 11:10:31;;;;;;;18.60;13.90;;;11.50;99.90;;;;;;5138264;27;20738;-75
2022/11/15 11:13:21;;;;;;;14.57;12.32;;;11.50;99.90;;;;;;5126708;27;20047;-75
2022/11/15 11:15:52;;;;;;;16.50;12.75;;;11.50;99.90;;;;;;5138170;27;20495;-74
2022/11/15 11:18:31;;;;;;;15.35;12.35;;;11.50;99.90;;;;;;5126801;27;20487;-74
2022/11/15 11:21:01;;;;;;;16.52;11.38;;;11.50;99.90;;;;;;5123469;27;20030;-75
2022/11/15 11:23:58;;;;;;;13.07;11.32;;;11.70;99.90;;;;;;5145504;27;20057;-74
2022/11/15 11:26:47;;;;;;;15.25;11.23;;;11.60;99.90;;;;;;5100613;28;20047;-75
2022/11/15 11:29:31;;;;;;;17.25;11.00;;;11.60;99.90;;;;;;5122225;27;20043;-74
2022/11/15 11:32:32;;;;;;;15.40;9.87;;;11.60;99.90;;;;;;5125683;27;20045;-75
2022/11/15 11:35:19;;;;;;;12.23;9.82;;;11.60;99.90;;;;;;5067239;27;20054;-75
2022/11/15 11:37:51;;;;;;;14.70;9.82;;;12.30;99.90;;;;;;5123050;27;20047;-75
2022/11/15 11:40:34;;;;;;;13.70;7.88;;;11.70;99.90;;;;;;5123147;27;20054;-75
2022/11/15 11:43:38;;;;;;;11.73;7.30;;;11.70;99.90;;;;;;5109992;27;20043;-75
2022/11/15 11:46:38;;;;;;;9.85;6.50;;;11.80;99.90;;;;;;5106210;27;20047;-74
2022/11/15 11:49:10;;;;;;;9.27;6.93;;;11.80;99.90;;;;;;5126956;27;20106;-74
2022/11/15 11:51:45;;;;;;;10.05;4.97;;;11.80;99.90;;;;;;5123419;27;20479;-75
2022/11/15 11:54:46;;;;;;;9.70;4.45;;;11.90;99.90;;;;;;5130927;27;20506;-74
2022/11/15 11:57:43;;;;;;;8.02;4.22;;;12.90;99.90;;;;;;5127686;27;20043;-74
2022/11/15 12:00:31;;;;;;;9.05;3.42;;;11.90;99.90;;;;;;5143875;27;20043;-74
2022/11/15 12:03:32;;;;;;;7.47;2.60;;;11.90;99.90;;;;;;5126871;27;20047;-74
2022/11/15 12:06:04;;;;;;;5.75;2.72;;;11.80;99.90;;;;;;5098797;27;20133;-74
2022/11/15 12:08:41;;;;;;;4.22;2.58;;;11.90;99.90;;;;;;5144190;27;20050;-74
2022/11/15 12:11:10;;;;;;;5.95;3.10;;;11.90;99.90;;;;;;5127604;27;20087;-75
2022/11/15 12:13:38;;;;;;;7.93;2.50;;;12.10;99.90;;;;;;5108672;27;20099;-75
2022/11/15 12:16:23;;;;;;;8.23;3.17;;;11.90;99.90;;;;;;5124385;27;20035;-74
2022/11/15 12:18:52;;;;;;;7.43;1.65;;;11.90;99.90;;;;;;5149538;27;20053;-74
2022/11/15 12:21:40;;;;;;;2.63;1.40;;;11.90;99.90;;;;;;5125255;27;20030;-74
2022/11/15 12:24:15;;;;;;;3.63;1.55;;;11.90;99.90;;;;;;5119941;27;20069;-75
2022/11/15 12:27:08;;;;;;;3.55;1.70;;;11.90;99.90;;;;;;5127364;27;20091;-75
2022/11/15 12:29:42;;;;;;;2.58;1.38;;;11.80;99.90;;;;;;5095056;27;20059;-74
2022/11/15 12:32:33;;;;;;;5.07;1.83;;;12.80;99.90;;;;;;5108259;27;20058;-74
2022/11/15 12:35:00;;;;;;;7.47;2.67;;;11.80;99.90;;;;;;5110084;27;20055;-75
2022/11/15 12:37:40;;;;;;;7.15;2.30;;;12.20;99.90;;;;;;5104589;27;20507;-74
2022/11/15 12:40:09;;;;;;;10.88;3.05;;;11.90;99.90;;;;;;5111031;27;20443;-74
2022/11/15 12:42:35;;;;;;;5.10;2.42;;;12.00;99.90;;;;;;5127787;27;20053;-74
2022/11/15 12:45:01;;;;;;;8.95;2.22;;;12.10;99.90;;;;;;5105127;27;20078;-74
2022/11/15 12:47:27;;;;;;;4.47;1.70;;;11.90;99.90;;;;;;5129705;27;20127;-74
2022/11/15 12:49:53;;;;;;;7.07;2.17;;;11.90;99.90;;;;;;5141950;27;20043;-75
2022/11/15 12:52:19;;;;;;;5.97;2.58;;;12.80;99.90;;;;;;5143868;27;20047;-76
2022/11/15 12:54:57;;;;;;;8.18;2.45;;;12.00;99.90;;;;;;5125589;27;20121;-74
2022/11/15 12:57:30;;;;;;;5.15;2.00;;;12.00;99.90;;;;;;5143223;27;20053;-74
2022/11/15 13:00:01;;;;;;;8.50;2.70;;;12.10;99.90;;;;;;5111713;27;20039;-74
2022/11/15 13:02:27;;;;;;;10.10;2.47;;;12.10;99.90;;;;;;5138536;27;20084;-74
2022/11/15 13:04:55;;;;;;;4.95;2.35;;;12.10;99.90;;;;;;5144045;27;20043;-74
2022/11/15 13:07:39;;;;;;;6.47;2.10;;;12.10;99.90;;;;;;5107725;27;20043;-74